Airfield :
LOGIN :

Register | Disclaimer

   EN    FR    IT 

 










Legend :    VFR   Marginal VFR   IFR   Intensive IFR   Very Intensive IFR
Visi :
Ceiling :
>= 8 km
>= 3000ft
5 to 8 km
1000 to 3000 ft
1500m to 5 km
500 to 1000 ft
800 to 1500m
200 to 500 ft
< 800m
< 200 ft
Symbols :   Thunderstorms  Fog  Heavy snow  Heavy precipitations  Wind > 20 kt
SIGMETs :     Misc.  Thunderstorms  Icing  Turbulence  Mountain Waves  Volcanic Ashes







- Airport Elevation : 1079 ft


ETIK - Illesheim Air Base

CURRENT METAR :
  • 211543Z 25015KT 8000 BR FEW006 BKN012 BKN020 OVC026 07/07 A2997 RMK AO2A RAB17E28 SLP158

EXPIRED METARs :
  • 211528Z 24012KT 6000 BR OVC010 07/07 A2996 RMK AO2A RAB17E28 CIG 008V010 SLP155
  • 211517Z 25013G20KT 6000 -RA BR OVC009 07/07 A2997 RMK AO2A RAB17 SLP158
  • 211456Z 24012KT 6000 BR OVC008 07/07 A2996 RMK AO2A SLP155 60001 T00730073 56003
  • 211427Z 24012KT 6000 BR OVC008 07/07 A2997 RMK SLP158
  • 211356Z AUTO 25010KT 9000 BR OVC009 07/07 A2997 RMK AO2 RAE07DZB07E09RAB26E42DZB42E43 SLP158 P0001 T00710071
  • 211343Z AUTO 25010KT 9999 OVC009 07/07 A2998 RMK AO2 RAE07DZB07E09RAB26E42DZB42E43 CIG 009V011 SLP161
  • 211326Z AUTO 24014KT 9999 -RA OVC013 07/07 A2997 RMK AO2 RAE07DZB07E09RAB26 SLP158
  • 211309Z AUTO 25012KT 9999 OVC013 07/07 A2997 RMK AO2 RAE07DZB07E09 SLP158
  • 211256Z AUTO 24012KT 9999 -RA OVC012 07/07 A2997 RMK AO2 RAB55 SLP158 T00740074

TAF AMD TAF ETIK
Valid from the 21 at 15:00 until the 22 at 20:00 UTC


211501Z 2115/2220 26012KT 9000 -DZ BR BKN008 OVC020 QNH2996INS
TEMPO 2115/2116 BKN010
BECMG 2115/2116 26012KT 9000 -DZ BKN010 OVC020 QNH2996INS
BECMG 2122/2123 26012KT 9999 NSW SCT010 BKN020 QNH2992INS
BECMG 2211/2212 25006KT 9999 SKC QNH2991INS TX10/2213Z TN03/2203Z
No reported NOTAMs for that airfield.



MET'MAP, your aeronautical weather chart ! - Copyright ORBIFLY December 2007 - Disclaimer

ORBIFLY MET'MAP TEAM :

Programming & Development : Alexandra Zaïnal
Concept & Development : Baudouin d'Aumeries
Co-Development & Prog : Marc-Olivier Méhu
Technical & hardware support : Manuel Goepfert

Contact : metmap@orbifly.com




SOURCES & CREDITS :

   NOAA